createdAt,value
2023-05-13T00:00:53.658Z,14.10
2023-05-13T00:03:21.957Z,14.10
2023-05-13T00:05:51.977Z,14.10
2023-05-13T00:08:20.383Z,14.10
2023-05-13T00:10:48.644Z,14.00
2023-05-13T00:13:16.976Z,14.00
2023-05-13T00:15:45.213Z,14.10
2023-05-13T00:18:13.537Z,14.10
2023-05-13T00:20:42.063Z,14.00
2023-05-13T00:23:12.394Z,14.10
2023-05-13T00:25:41.362Z,14.00
2023-05-13T00:28:09.674Z,14.00
2023-05-13T00:30:38.601Z,14.10
2023-05-13T00:33:07.563Z,14.00
2023-05-13T00:35:36.089Z,14.00
2023-05-13T00:38:04.364Z,14.00
2023-05-13T00:40:38.137Z,14.00
2023-05-13T00:43:06.752Z,14.00
2023-05-13T00:45:35.059Z,14.00
2023-05-13T00:48:08.147Z,14.00
2023-05-13T00:50:36.498Z,14.00
2023-05-13T00:53:05.776Z,14.00
2023-05-13T00:55:35.556Z,14.00
2023-05-13T00:58:03.828Z,14.00
2023-05-13T01:00:37.306Z,14.00
2023-05-13T01:03:15.135Z,13.90
2023-05-13T01:05:52.938Z,14.00
2023-05-13T01:08:37.551Z,14.00
2023-05-13T01:11:11.862Z,14.00
2023-05-13T01:13:43.371Z,13.90
2023-05-13T01:16:17.225Z,14.00
2023-05-13T01:18:50.114Z,13.90
2023-05-13T01:21:23.655Z,13.90
2023-05-13T01:23:52.221Z,13.90
2023-05-13T01:26:21.566Z,13.90
2023-05-13T01:28:50.041Z,13.90
2023-05-13T01:31:21.117Z,13.90
2023-05-13T01:33:50.843Z,14.00
2023-05-13T01:36:19.664Z,13.90
2023-05-13T01:38:51.249Z,13.90
2023-05-13T01:41:21.300Z,13.90
2023-05-13T01:43:50.026Z,13.90
2023-05-13T01:46:18.502Z,13.90
2023-05-13T01:48:46.829Z,13.90
2023-05-13T01:51:15.192Z,13.90
2023-05-13T01:53:43.627Z,13.90
2023-05-13T01:56:13.310Z,13.90
2023-05-13T01:58:42.031Z,13.80
2023-05-13T02:01:10.400Z,13.90
2023-05-13T02:03:38.963Z,13.90
2023-05-13T02:06:07.697Z,13.80
2023-05-13T02:08:36.045Z,13.80
2023-05-13T02:11:05.283Z,13.90
2023-05-13T02:13:34.947Z,13.90
2023-05-13T02:16:03.689Z,13.90
2023-05-13T02:18:32.079Z,13.90
2023-05-13T02:21:00.995Z,13.90
2023-05-13T02:23:29.489Z,13.90
2023-05-13T02:25:57.770Z,13.90
2023-05-13T02:28:28.814Z,13.80
2023-05-13T02:30:58.561Z,13.90
2023-05-13T02:33:26.894Z,13.90
2023-05-13T02:35:55.305Z,13.90
2023-05-13T02:38:23.595Z,13.90
2023-05-13T02:40:52.505Z,13.90
2023-05-13T02:43:21.734Z,13.90
2023-05-13T02:45:58.375Z,13.90
2023-05-13T02:48:26.806Z,13.90
2023-05-13T02:50:55.169Z,13.80
2023-05-13T02:53:24.291Z,13.80
2023-05-13T02:56:00.404Z,13.90
2023-05-13T02:58:28.686Z,13.80
2023-05-13T03:00:59.316Z,13.90
2023-05-13T03:03:27.773Z,13.90
2023-05-13T03:05:56.333Z,13.90
2023-05-13T03:08:24.851Z,13.90
2023-05-13T03:10:53.157Z,13.90
2023-05-13T03:13:21.692Z,13.80
2023-05-13T03:15:50.041Z,13.80
2023-05-13T03:18:19.823Z,13.90
2023-05-13T03:20:48.169Z,13.90
2023-05-13T03:23:16.452Z,13.80
2023-05-13T03:25:46.724Z,13.90
2023-05-13T03:28:15.244Z,13.80
2023-05-13T03:30:45.423Z,13.90
2023-05-13T03:33:21.422Z,13.90
2023-05-13T03:35:50.260Z,13.90
2023-05-13T03:38:23.852Z,13.90
2023-05-13T03:40:53.353Z,13.90
2023-05-13T03:43:21.896Z,13.90
2023-05-13T03:45:56.435Z,13.90
2023-05-13T03:48:26.689Z,13.90
2023-05-13T03:50:57.413Z,13.90
2023-05-13T03:53:26.100Z,13.90
2023-05-13T03:55:56.097Z,13.90
2023-05-13T03:58:24.447Z,13.80
2023-05-13T04:00:52.765Z,13.90
2023-05-13T04:03:21.182Z,13.90
2023-05-13T04:05:53.270Z,13.90
2023-05-13T04:08:21.612Z,13.90
2023-05-13T04:10:50.823Z,13.90
2023-05-13T04:13:20.038Z,13.90
2023-05-13T04:15:48.299Z,13.90
2023-05-13T04:18:16.532Z,13.90
2023-05-13T04:20:44.934Z,13.90
2023-05-13T04:23:14.638Z,13.90
2023-05-13T04:25:43.333Z,13.90
2023-05-13T04:28:11.611Z,14.10
2023-05-13T04:30:44.306Z,13.90
2023-05-13T04:33:12.836Z,13.90
2023-05-13T04:35:44.378Z,13.90
2023-05-13T04:38:14.889Z,13.90
2023-05-13T04:40:44.422Z,13.90
2023-05-13T04:43:15.695Z,13.90
2023-05-13T04:45:54.721Z,13.90
2023-05-13T04:48:23.826Z,13.90
2023-05-13T04:50:52.446Z,13.90
2023-05-13T04:53:22.584Z,13.90
2023-05-13T04:55:52.513Z,13.80
2023-05-13T04:58:20.781Z,13.90
2023-05-13T05:00:49.037Z,13.90
2023-05-13T05:03:17.277Z,13.80
2023-05-13T05:05:46.026Z,13.80
2023-05-13T05:08:15.796Z,13.90
2023-05-13T05:10:46.348Z,13.90
2023-05-13T05:13:15.686Z,13.90
2023-05-13T05:15:45.475Z,13.80
2023-05-13T05:18:15.574Z,13.90
2023-05-13T05:20:46.580Z,13.90
2023-05-13T05:23:17.547Z,13.90
2023-05-13T05:25:48.579Z,13.90
2023-05-13T05:28:18.717Z,13.90
2023-05-13T05:30:48.371Z,13.90
2023-05-13T05:33:27.202Z,13.90
2023-05-13T05:35:55.859Z,13.90
2023-05-13T05:38:26.066Z,13.80
2023-05-13T05:40:58.328Z,13.90
2023-05-13T05:43:26.675Z,13.80
2023-05-13T05:45:55.268Z,13.90
2023-05-13T05:48:23.923Z,13.80
2023-05-13T05:50:52.446Z,13.90
2023-05-13T05:53:27.582Z,13.80
2023-05-13T05:55:57.660Z,13.80
2023-05-13T05:58:27.026Z,13.80
2023-05-13T06:00:57.155Z,13.80
2023-05-13T06:03:25.800Z,13.90
2023-05-13T06:05:54.461Z,13.90
2023-05-13T06:08:29.833Z,13.80
2023-05-13T06:11:00.920Z,13.80
2023-05-13T06:13:29.521Z,13.90
2023-05-13T06:15:57.942Z,13.80
2023-05-13T06:18:27.289Z,13.80
2023-05-13T06:20:55.815Z,13.80
2023-05-13T06:23:24.120Z,13.80
2023-05-13T06:25:53.219Z,13.80
2023-05-13T06:28:22.908Z,13.90
2023-05-13T06:30:53.806Z,13.80
2023-05-13T06:33:22.390Z,13.80
2023-05-13T06:35:50.817Z,13.80
2023-05-13T06:38:21.644Z,13.80
2023-05-13T06:40:51.915Z,13.80
2023-05-13T06:43:25.115Z,13.80
2023-05-13T06:45:58.737Z,13.80
2023-05-13T06:48:29.414Z,13.90
2023-05-13T06:50:58.611Z,13.80
2023-05-13T06:53:27.008Z,13.80
2023-05-13T06:55:55.332Z,13.80
2023-05-13T06:58:25.113Z,13.80
2023-05-13T07:00:53.374Z,13.80
2023-05-13T07:03:21.819Z,13.80
2023-05-13T07:05:50.029Z,13.80
2023-05-13T07:08:18.915Z,13.80
2023-05-13T07:10:47.199Z,13.80
2023-05-13T07:13:15.662Z,13.80
2023-05-13T07:15:45.764Z,13.80
2023-05-13T07:18:14.022Z,13.80
2023-05-13T07:20:42.344Z,13.80
2023-05-13T07:23:10.698Z,13.80
2023-05-13T07:25:39.008Z,13.80
2023-05-13T07:28:07.332Z,13.80
2023-05-13T07:30:35.636Z,13.80
2023-05-13T07:33:05.972Z,13.80
2023-05-13T07:35:34.416Z,13.80
2023-05-13T07:38:02.606Z,13.80
2023-05-13T07:40:30.983Z,13.80
2023-05-13T07:42:59.360Z,13.80
2023-05-13T07:45:27.802Z,13.80
2023-05-13T07:47:56.476Z,13.80
2023-05-13T07:50:26.343Z,13.80
2023-05-13T07:52:54.644Z,13.80
2023-05-13T07:55:23.397Z,13.80
2023-05-13T07:57:51.882Z,13.90
2023-05-13T08:00:20.535Z,13.90
2023-05-13T08:02:48.977Z,13.80
2023-05-13T08:05:17.305Z,13.90
2023-05-13T08:07:46.900Z,13.90
2023-05-13T08:10:15.483Z,13.90
2023-05-13T08:12:44.465Z,13.90
2023-05-13T08:15:14.362Z,13.90
2023-05-13T08:17:42.701Z,13.90
2023-05-13T08:20:12.445Z,13.90
2023-05-13T08:22:40.800Z,13.90
2023-05-13T08:25:12.261Z,13.90
2023-05-13T08:27:40.578Z,13.90
2023-05-13T08:30:10.048Z,13.90
2023-05-13T08:32:38.301Z,13.90
2023-05-13T08:35:07.434Z,13.90
2023-05-13T08:37:35.722Z,13.90
2023-05-13T08:40:04.784Z,13.90
2023-05-13T08:42:34.767Z,13.90
2023-05-13T08:45:06.228Z,13.90
2023-05-13T08:47:45.032Z,13.90
2023-05-13T08:50:14.543Z,13.90
2023-05-13T08:52:44.463Z,13.80
2023-05-13T08:55:13.513Z,13.90
2023-05-13T08:57:43.155Z,13.90
2023-05-13T09:00:12.565Z,13.90
2023-05-13T09:02:40.934Z,13.90
2023-05-13T09:05:10.605Z,13.90
2023-05-13T09:07:40.168Z,13.90
2023-05-13T09:10:10.290Z,13.90
2023-05-13T09:12:47.568Z,13.90
2023-05-13T09:15:17.641Z,13.90
2023-05-13T09:17:49.004Z,13.90
2023-05-13T09:20:19.557Z,13.90
2023-05-13T09:22:48.996Z,13.90
2023-05-13T09:25:18.393Z,13.90
2023-05-13T09:27:50.198Z,13.90
2023-05-13T09:30:18.822Z,13.90
2023-05-13T09:33:06.784Z,13.90
2023-05-13T09:35:36.198Z,13.90
2023-05-13T09:38:13.982Z,13.90
2023-05-13T09:40:42.565Z,13.90
2023-05-13T09:43:12.348Z,13.90
2023-05-13T09:45:40.639Z,13.90
2023-05-13T09:48:11.371Z,13.90
2023-05-13T09:50:49.210Z,13.80
2023-05-13T09:53:18.190Z,13.90
2023-05-13T09:55:47.511Z,13.90
2023-05-13T09:58:17.299Z,13.90
2023-05-13T10:00:45.826Z,14.00
2023-05-13T10:03:16.115Z,13.90
2023-05-13T10:05:45.701Z,13.90
2023-05-13T10:08:15.103Z,13.90
2023-05-13T10:10:45.719Z,13.90
2023-05-13T10:13:19.431Z,13.90
2023-05-13T10:15:51.205Z,14.00
2023-05-13T10:18:20.755Z,14.00
2023-05-13T10:20:53.205Z,13.90
2023-05-13T10:23:22.700Z,13.90
2023-05-13T10:25:52.256Z,13.90
2023-05-13T10:28:22.349Z,13.90
2023-05-13T10:30:52.018Z,13.90
2023-05-13T10:33:21.627Z,13.90
2023-05-13T10:36:09.264Z,13.90
2023-05-13T10:38:54.403Z,13.90
2023-05-13T10:41:55.187Z,13.90
2023-05-13T10:44:25.524Z,13.90
2023-05-13T10:46:54.020Z,13.90
2023-05-13T10:49:24.794Z,13.90
2023-05-13T10:51:53.010Z,14.00
2023-05-13T10:54:22.451Z,14.00
2023-05-13T10:56:58.660Z,14.00
2023-05-13T10:59:30.675Z,14.00
2023-05-13T11:02:02.088Z,14.00
2023-05-13T11:04:31.193Z,14.00
2023-05-13T11:07:16.626Z,13.90
2023-05-13T11:09:51.358Z,13.90
2023-05-13T11:12:19.753Z,13.90
2023-05-13T11:14:49.959Z,13.90
2023-05-13T11:17:20.728Z,13.90
2023-05-13T11:19:51.776Z,13.90
2023-05-13T11:22:22.046Z,14.00
2023-05-13T11:25:06.645Z,14.00
2023-05-13T11:27:39.597Z,13.90
2023-05-13T11:30:24.334Z,13.90
2023-05-13T11:32:58.394Z,13.90
2023-05-13T11:35:28.574Z,14.00
2023-05-13T11:38:00.098Z,13.90
2023-05-13T11:40:30.179Z,13.90
2023-05-13T11:42:59.301Z,13.90
2023-05-13T11:45:30.683Z,13.90
2023-05-13T11:47:59.172Z,13.90
2023-05-13T11:50:30.111Z,13.90
2023-05-13T11:53:00.544Z,13.90
2023-05-13T11:55:29.822Z,13.90
2023-05-13T11:57:58.686Z,13.90
2023-05-13T12:00:29.038Z,13.90
2023-05-13T12:02:57.896Z,14.00
2023-05-13T12:05:27.399Z,14.00
2023-05-13T12:07:58.931Z,14.00
2023-05-13T12:10:28.150Z,14.00
2023-05-13T12:12:56.619Z,14.00
2023-05-13T12:15:25.320Z,14.10
2023-05-13T12:17:55.837Z,14.00
2023-05-13T12:20:25.139Z,14.10
2023-05-13T12:22:59.800Z,14.10
2023-05-13T12:25:51.335Z,14.00
2023-05-13T12:28:21.297Z,14.00
2023-05-13T12:30:54.501Z,14.00
2023-05-13T12:33:25.917Z,14.00
2023-05-13T12:35:55.722Z,14.00
2023-05-13T12:38:25.572Z,14.00
2023-05-13T12:40:55.143Z,14.00
2023-05-13T12:43:24.880Z,14.10
2023-05-13T12:45:55.741Z,14.10
2023-05-13T12:48:28.490Z,14.10
2023-05-13T12:50:58.075Z,14.10
2023-05-13T12:53:27.412Z,14.10
2023-05-13T12:55:55.778Z,14.10
2023-05-13T12:58:24.096Z,14.10
2023-05-13T13:00:52.496Z,14.20
2023-05-13T13:03:23.432Z,14.10
2023-05-13T13:05:54.523Z,14.30
2023-05-13T13:08:22.816Z,14.10
2023-05-13T13:10:51.313Z,14.10
2023-05-13T13:13:19.530Z,14.20
2023-05-13T13:15:47.878Z,14.10
2023-05-13T13:18:16.176Z,14.10
2023-05-13T13:20:44.626Z,14.10
2023-05-13T13:23:14.400Z,14.10
2023-05-13T13:25:42.771Z,14.10
2023-05-13T13:28:11.154Z,14.10
2023-05-13T13:30:39.676Z,14.10
2023-05-13T13:33:08.457Z,14.10
2023-05-13T13:35:37.982Z,14.20
2023-05-13T13:38:06.321Z,14.20
2023-05-13T13:40:36.728Z,14.20
2023-05-13T13:43:05.182Z,14.20
2023-05-13T13:45:33.497Z,14.20
2023-05-13T13:48:02.033Z,14.20
2023-05-13T13:50:30.451Z,14.20
2023-05-13T13:52:58.752Z,14.20
2023-05-13T13:55:27.702Z,14.30
2023-05-13T13:57:57.329Z,14.30
2023-05-13T14:00:25.753Z,14.30
2023-05-13T14:05:22.376Z,14.20
2023-05-13T14:07:54.118Z,14.10
2023-05-13T14:10:22.843Z,14.10
2023-05-13T14:12:51.318Z,14.10
2023-05-13T14:15:21.032Z,14.20
2023-05-13T14:17:49.516Z,14.20
2023-05-13T14:20:17.944Z,14.30
2023-05-13T14:22:46.182Z,14.20
2023-05-13T14:25:15.085Z,14.20
2023-05-13T14:27:43.360Z,14.30
2023-05-13T14:30:11.904Z,14.30
2023-05-13T14:32:45.082Z,14.30
2023-05-13T14:35:14.536Z,14.30
2023-05-13T14:37:43.783Z,14.30
2023-05-13T14:40:12.377Z,14.30
2023-05-13T14:42:40.644Z,14.30
2023-05-13T14:45:13.491Z,14.30
2023-05-13T14:47:45.151Z,14.30
2023-05-13T14:50:15.165Z,14.30
2023-05-13T14:52:43.571Z,14.30
2023-05-13T14:55:12.000Z,14.30
2023-05-13T14:57:40.484Z,14.30
2023-05-13T15:00:10.092Z,14.40
2023-05-13T15:02:38.699Z,14.30
2023-05-13T15:05:09.485Z,14.30
2023-05-13T15:07:37.773Z,14.30
2023-05-13T15:10:06.776Z,14.30
2023-05-13T15:12:35.201Z,14.30
2023-05-13T15:15:03.513Z,14.30
2023-05-13T15:17:32.086Z,14.30
2023-05-13T15:20:00.477Z,14.30
2023-05-13T15:22:31.455Z,14.30
2023-05-13T15:25:01.023Z,14.40
2023-05-13T15:27:29.806Z,14.40
2023-05-13T15:29:58.154Z,14.40
2023-05-13T15:32:26.501Z,14.40
2023-05-13T15:34:54.778Z,14.40
2023-05-13T15:37:23.090Z,14.40
2023-05-13T15:39:52.814Z,14.40
2023-05-13T15:42:21.357Z,14.40
2023-05-13T15:44:53.070Z,14.40
2023-05-13T15:47:23.330Z,14.40
2023-05-13T15:49:54.158Z,14.40
2023-05-13T15:52:22.462Z,14.40
2023-05-13T15:54:52.123Z,14.40
2023-05-13T15:57:20.357Z,14.40
2023-05-13T15:59:48.746Z,14.40
2023-05-13T16:02:18.391Z,14.40
2023-05-13T16:04:47.358Z,14.40
2023-05-13T16:07:15.639Z,14.30
2023-05-13T16:09:43.950Z,14.30
2023-05-13T16:12:13.663Z,14.30
2023-05-13T16:14:41.855Z,14.30
2023-05-13T16:17:10.881Z,14.30
2023-05-13T16:19:39.296Z,14.30
2023-05-13T16:22:25.947Z,14.30
2023-05-13T16:24:54.439Z,14.30
2023-05-13T16:27:24.152Z,14.30
2023-05-13T16:29:53.313Z,14.30
2023-05-13T16:32:21.618Z,14.40
2023-05-13T16:34:50.307Z,14.40
2023-05-13T16:37:18.752Z,14.40
2023-05-13T16:39:47.177Z,14.40
2023-05-13T16:42:15.612Z,14.40
2023-05-13T16:44:45.243Z,14.40
2023-05-13T16:47:13.967Z,14.30
2023-05-13T16:49:42.697Z,14.30
2023-05-13T16:52:11.052Z,14.30
2023-05-13T16:54:39.291Z,14.30
2023-05-13T16:57:07.611Z,14.20
2023-05-13T16:59:35.922Z,14.20
2023-05-13T17:02:06.144Z,14.30
2023-05-13T17:04:34.759Z,14.30
2023-05-13T17:07:03.571Z,14.30
2023-05-13T17:09:32.374Z,14.30
2023-05-13T17:12:00.721Z,14.30
2023-05-13T17:14:29.037Z,14.30
2023-05-13T17:16:57.763Z,14.30
2023-05-13T17:19:27.385Z,14.30
2023-05-13T17:21:55.619Z,14.40
2023-05-13T17:24:24.045Z,14.30
2023-05-13T17:26:52.433Z,14.40
2023-05-13T17:29:20.713Z,14.40
2023-05-13T17:31:51.722Z,14.40
2023-05-13T17:34:20.348Z,14.40
2023-05-13T17:36:50.386Z,14.40
2023-05-13T17:39:18.869Z,14.50
2023-05-13T17:41:47.243Z,14.40
2023-05-13T17:44:15.820Z,14.40
2023-05-13T17:46:44.302Z,14.50
2023-05-13T17:49:12.607Z,14.40
2023-05-13T17:51:41.886Z,14.40
2023-05-13T17:54:11.695Z,14.40
2023-05-13T17:56:40.049Z,14.40
2023-05-13T17:59:08.459Z,14.40
2023-05-13T18:01:36.864Z,14.40
2023-05-13T18:04:05.148Z,14.40
2023-05-13T18:06:33.989Z,14.40
2023-05-13T18:09:02.944Z,14.40
2023-05-13T18:11:32.740Z,14.40
2023-05-13T18:14:01.107Z,14.40
2023-05-13T18:16:29.496Z,14.40
2023-05-13T18:18:57.902Z,14.40
2023-05-13T18:21:28.932Z,14.40
2023-05-13T18:23:57.375Z,14.40
2023-05-13T18:26:26.636Z,14.40
2023-05-13T18:28:56.318Z,14.40
2023-05-13T18:31:24.793Z,14.40
2023-05-13T18:33:53.110Z,14.40
2023-05-13T18:36:21.532Z,14.40
2023-05-13T18:38:49.711Z,14.40
2023-05-13T18:41:18.009Z,14.40
2023-05-13T18:43:46.891Z,14.40
2023-05-13T18:46:16.949Z,14.30
2023-05-13T18:48:47.018Z,14.30
2023-05-13T18:51:16.460Z,14.30
2023-05-13T18:53:45.021Z,14.30
2023-05-13T18:56:13.678Z,14.30
2023-05-13T18:58:42.246Z,14.30
2023-05-13T19:01:10.598Z,14.30
2023-05-13T19:03:41.030Z,14.30
2023-05-13T19:06:09.573Z,14.30
2023-05-13T19:08:38.119Z,14.40
2023-05-13T19:11:06.560Z,14.40
2023-05-13T19:13:46.017Z,14.40
2023-05-13T19:16:15.152Z,14.40
2023-05-13T19:18:44.958Z,14.40
2023-05-13T19:21:13.238Z,14.40
2023-05-13T19:23:41.486Z,14.40
2023-05-13T19:26:10.415Z,14.50
2023-05-13T19:28:39.413Z,14.50
2023-05-13T19:31:07.872Z,14.50
2023-05-13T19:33:37.056Z,14.50
2023-05-13T19:36:07.521Z,14.40
2023-05-13T19:38:37.072Z,14.60
2023-05-13T19:41:05.765Z,14.70
2023-05-13T19:43:34.030Z,14.80
2023-05-13T19:46:02.956Z,14.80
2023-05-13T19:48:31.379Z,14.90
2023-05-13T19:51:00.577Z,14.90
2023-05-13T19:53:30.660Z,14.90
2023-05-13T19:55:59.222Z,14.90
2023-05-13T19:58:28.515Z,14.90
2023-05-13T20:00:57.714Z,14.90
2023-05-13T20:03:26.879Z,14.80
2023-05-13T20:05:55.819Z,14.90
2023-05-13T20:08:24.203Z,14.80
2023-05-13T20:10:54.431Z,14.90
2023-05-13T20:13:22.944Z,14.90
2023-05-13T20:15:51.920Z,14.90
2023-05-13T20:18:22.982Z,14.90
2023-05-13T20:20:51.652Z,14.90
2023-05-13T20:23:19.980Z,14.90
2023-05-13T20:25:48.674Z,14.90
2023-05-13T20:28:18.482Z,14.90
2023-05-13T20:30:46.868Z,14.90
2023-05-13T20:33:15.874Z,14.90
2023-05-13T20:35:45.054Z,14.90
2023-05-13T20:38:13.529Z,14.90
2023-05-13T20:40:42.021Z,14.90
2023-05-13T20:43:10.551Z,14.90
2023-05-13T20:45:40.994Z,14.90
2023-05-13T20:48:09.639Z,14.90
2023-05-13T20:50:38.298Z,14.90
2023-05-13T20:53:07.099Z,14.90
2023-05-13T20:55:35.719Z,14.90
2023-05-13T20:58:04.307Z,14.90
2023-05-13T21:00:33.214Z,14.90
2023-05-13T21:03:03.430Z,14.80
2023-05-13T21:05:32.151Z,14.80
2023-05-13T21:08:01.168Z,14.80
2023-05-13T21:10:29.540Z,14.80
2023-05-13T21:12:57.852Z,14.70
2023-05-13T21:15:26.812Z,14.60
2023-05-13T21:17:55.469Z,14.50
2023-05-13T21:20:25.530Z,14.50
2023-05-13T21:22:54.056Z,14.50
2023-05-13T21:25:22.698Z,14.60
2023-05-13T21:27:51.383Z,14.50
2023-05-13T21:30:20.086Z,14.60
2023-05-13T21:32:48.837Z,14.50
2023-05-13T21:35:17.740Z,14.40
2023-05-13T21:37:47.703Z,14.40
2023-05-13T21:40:16.485Z,14.40
2023-05-13T21:42:44.824Z,14.40
2023-05-13T21:45:15.160Z,14.40
2023-05-13T21:47:43.545Z,14.50
2023-05-13T21:50:12.279Z,14.40
2023-05-13T21:52:40.865Z,14.40
2023-05-13T21:55:11.291Z,14.40
2023-05-13T21:57:39.770Z,14.40
2023-05-13T22:00:10.724Z,14.40
2023-05-13T22:02:44.366Z,14.40
2023-05-13T22:05:13.024Z,14.50
2023-05-13T22:07:41.427Z,14.40
2023-05-13T22:10:11.948Z,14.40
2023-05-13T22:12:40.204Z,14.40
2023-05-13T22:15:09.618Z,14.40
2023-05-13T22:17:38.048Z,14.40
2023-05-13T22:20:07.571Z,14.40
2023-05-13T22:22:35.879Z,14.40
2023-05-13T22:25:04.528Z,14.40
2023-05-13T22:27:34.229Z,14.40
2023-05-13T22:30:02.578Z,14.40
2023-05-13T22:32:31.609Z,14.40
2023-05-13T22:34:59.909Z,14.40
2023-05-13T22:37:28.170Z,14.40
2023-05-13T22:39:56.521Z,14.40
2023-05-13T22:42:24.769Z,14.40
2023-05-13T22:44:54.710Z,14.40
2023-05-13T22:47:23.132Z,14.40
2023-05-13T22:49:51.676Z,14.40
2023-05-13T22:52:19.918Z,14.40
2023-05-13T22:54:48.232Z,14.30
2023-05-13T22:57:16.658Z,14.40
2023-05-13T22:59:44.915Z,14.40
2023-05-13T23:02:14.535Z,14.40
2023-05-13T23:04:42.806Z,14.40
2023-05-13T23:07:11.175Z,14.30
2023-05-13T23:09:39.409Z,14.40
2023-05-13T23:12:08.873Z,14.30
2023-05-13T23:14:37.168Z,14.40
2023-05-13T23:17:06.073Z,14.30
2023-05-13T23:19:35.733Z,14.30
2023-05-13T23:22:03.999Z,14.40
2023-05-13T23:24:32.281Z,14.30
2023-05-13T23:27:00.602Z,14.40
2023-05-13T23:29:28.821Z,14.40
2023-05-13T23:31:57.268Z,14.30
2023-05-13T23:34:26.581Z,14.40
2023-05-13T23:36:56.244Z,14.30
2023-05-13T23:39:24.503Z,14.30
2023-05-13T23:41:52.775Z,14.40
2023-05-13T23:44:21.115Z,14.30
2023-05-13T23:46:49.674Z,14.30
2023-05-13T23:49:18.196Z,14.30
2023-05-13T23:51:46.833Z,14.30
2023-05-13T23:54:16.743Z,14.40
2023-05-13T23:56:45.045Z,14.30
2023-05-13T23:59:13.300Z,14.30
